Kalamazoo, Michigan
Current Conditions -  °F | °C
As of 9:53 AM on Tuesday 21 Oct 2014 (Local Time) from KAZO Reporting Station
Overcast Overcast  
Wind Chill:   Ceiling: 700
Heat Index:   Visibility: 10mi
Dew Point:   Wind: 12mph
Humidity: 86%   Direction: 350°N
Pressure: 30.07"   Gusts: NA
Location:  42.29°N, 85.6°W
Report Text: KAZO 211353Z 35010KT 10SM OVC007 08/06 A3007 RMK AO2 RAE23 SLP186 P0000 T00830061
Loading
Personal Weather Stations






























Interactive Weather Map
Tropical Storm Tracking
New forecast layout! Learn more

10-Day Weather Forecast

Advertisements
Track Severe Weather on mobile